UGKO/KIU METAR and TAF weather

Enter ICAO airport designator
Station Type Date Time Source
UGKO METAR 2019/12/06 02:00 UTC NOAA

UGKO 060200Z VRB02KT CAVOK M01/M01 Q1030 NOSIG


Station Type Date Time Source
UGKO Decoded METAR 2019/12/06 02:00 UTC NOAA

Station name not available
Dec 05, 2019 - 09:00 PM EST / 2019.12.06 0200 UTC
Wind: Variable at 2 MPH (2 KT):0
Visibility: greater than 7 mile(s):0
Temperature: 30 F (-1 C)
Dew Point: 30 F (-1 C)
Relative Humidity: 100%
Pressure (altimeter): 30.42 in. Hg (1030 hPa)
ob: UGKO 060200Z VRB02KT CAVOK M01/M01 Q1030 NOSIG
cycle: 2

Station Type Date Time Source
UGKO TAF 2019/12/05 18:03 UTC NOAA

TAF UGKO 051700Z 0518/0618 08006KT CAVOK TX13/0612Z TNM02/0603Z PROB30
TEMPO 0518/0524 4500 BR

Example: see airport list